Satanta, KS

10:19 AM CDT en Septiembre 29, 2016 (GMT -0500)
Garden City Co-op Rock Island | | Change Station

Alt 3100 ft 37.68 °N, 101.24 °W | Updated 19 seconds ago

Clear
Despejado
60.6 ° F
Sensación térmica 60.6 ° F
N
8.1
Viento Variable Viento desde SSO
Gusts 11.0 mph

Hoy
Alta -- | Baja -- ° F
--% Posibilidad de precipitaciones
Ayer
Alta -- | Baja -- ° F
Precip. -- pul
Presión 30.46 pul
Visibilidad 10.0 Millas
Nubes Despejado
Punto de rocío 44 ° F
Humedad 54%
Precipitaciones 0.00 pul
Espesor de la nieve No disponible.
7:38 AM 7:29 PM
Creciente menguante, 2% visible
METAR KLBL 291515Z 16005KT 10SM CLR 16/06 A3046 RMK AO1
Presión 30.46 pul
Visibilidad 10.0 Millas
Nubes Despejado
Punto de rocío 44 ° F
Humedad 54%
Precipitaciones 0.00 pul
Espesor de la nieve No disponible.
7:38 AM 7:29 PM
Creciente menguante, 2% visible
METAR KLBL 291515Z 16005KT 10SM CLR 16/06 A3046 RMK AO1

10-Day Weather Forecast

Almanac

Astronomía

Sep. 29, 2016 Salida Puesta
Hora real
Crepúsculo civil
Crepúsculo náutico
Crepúsculo astronómico
Luna
Horas de luz
Horas de luz
Tomorrow will be .
, % of the Moon is Illuminated

Extremos de hoy

Máximos del estado Bajos del estado

Community

WunderPhotos

Upload Photos

1,942,490 ¡fotos cargadas!

WunderBlog® & News

Nearby

Calidad del aire

  Calidad del aire Índice AQ Contaminante
Not available.

Grosos de nieve

Estación Profundido Altura

Actividad de terremotos

Ciudad Distance Mag. Tiempo y dato
Magnitud mínima muestra es 2,5.

Temperaturas de aguas costeras

Lugar Temperatura

Stations

Estaciones meteorológicas cercanas

Ubicación de la estación Temp. Vientos helados Punto de rocío Humedad Viento Precip. Alt Actualizado Tipo
                   

Watches & Warnings

There are currently no watches in effect.